createdAt,value
2023-09-05T00:01:04.771Z,26.50
2023-09-05T00:03:33.072Z,26.50
2023-09-05T00:06:01.967Z,26.50
2023-09-05T00:08:29.278Z,26.50
2023-09-05T00:10:56.411Z,26.40
2023-09-05T00:13:23.873Z,26.40
2023-09-05T00:15:51.352Z,26.40
2023-09-05T00:18:18.558Z,26.40
2023-09-05T00:20:47.378Z,26.30
2023-09-05T00:23:14.688Z,26.30
2023-09-05T00:25:42.298Z,26.20
2023-09-05T00:28:10.184Z,26.20
2023-09-05T00:30:37.509Z,26.10
2023-09-05T00:33:04.887Z,26.10
2023-09-05T00:35:33.280Z,26.10
2023-09-05T00:38:00.396Z,26.10
2023-09-05T00:40:28.955Z,26.10
2023-09-05T00:42:57.512Z,26.10
2023-09-05T00:45:25.741Z,26.10
2023-09-05T00:47:54.192Z,26.00
2023-09-05T00:50:22.730Z,25.90
2023-09-05T00:52:50.062Z,25.90
2023-09-05T00:55:17.666Z,25.80
2023-09-05T00:57:44.966Z,25.80
2023-09-05T01:00:15.283Z,25.80
2023-09-05T01:02:42.692Z,25.70
2023-09-05T01:05:11.974Z,25.70
2023-09-05T01:07:53.891Z,25.70
2023-09-05T01:10:25.548Z,25.70
2023-09-05T01:12:52.796Z,25.60
2023-09-05T01:15:21.459Z,25.60
2023-09-05T01:17:52.109Z,25.60
2023-09-05T01:20:20.526Z,25.60
2023-09-05T01:22:53.960Z,25.60
2023-09-05T01:25:22.182Z,25.50
2023-09-05T01:27:50.064Z,25.50
2023-09-05T01:30:18.077Z,25.50
2023-09-05T01:32:46.174Z,25.50
2023-09-05T01:35:13.621Z,25.50
2023-09-05T01:37:47.001Z,25.50
2023-09-05T01:40:14.894Z,25.50
2023-09-05T01:42:42.086Z,25.40
2023-09-05T01:45:10.072Z,25.40
2023-09-05T01:47:37.834Z,25.40
2023-09-05T01:50:05.604Z,25.30
2023-09-05T01:52:33.367Z,25.30
2023-09-05T01:55:03.406Z,25.30
2023-09-05T01:57:30.960Z,25.30
2023-09-05T01:59:58.236Z,25.20
2023-09-05T02:02:25.666Z,25.20
2023-09-05T02:04:52.833Z,25.10
2023-09-05T02:07:21.134Z,25.10
2023-09-05T02:09:48.455Z,25.10
2023-09-05T02:12:15.877Z,25.00
2023-09-05T02:14:48.772Z,25.00
2023-09-05T02:17:17.687Z,25.00
2023-09-05T02:19:45.226Z,25.00
2023-09-05T02:22:12.825Z,25.00
2023-09-05T02:24:40.057Z,25.00
2023-09-05T02:27:07.345Z,25.00
2023-09-05T02:29:35.739Z,24.90
2023-09-05T02:32:03.223Z,25.00
2023-09-05T02:34:32.870Z,25.00
2023-09-05T02:37:02.033Z,25.00
2023-09-05T02:39:29.224Z,25.00
2023-09-05T02:41:56.584Z,25.00
2023-09-05T02:44:25.068Z,24.90
2023-09-05T02:46:52.799Z,24.90
2023-09-05T02:49:19.972Z,24.90
2023-09-05T02:51:47.938Z,24.90
2023-09-05T02:54:15.478Z,24.90
2023-09-05T02:56:42.685Z,24.90
2023-09-05T02:59:09.874Z,24.90
2023-09-05T03:01:37.539Z,24.80
2023-09-05T03:04:05.312Z,24.80
2023-09-05T03:06:32.754Z,24.80
2023-09-05T03:09:00.146Z,24.80
2023-09-05T03:11:27.571Z,24.80
2023-09-05T03:13:55.026Z,24.70
2023-09-05T03:16:25.085Z,24.70
2023-09-05T03:18:52.520Z,24.60
2023-09-05T03:21:21.312Z,24.60
2023-09-05T03:23:49.489Z,24.60
2023-09-05T03:26:20.434Z,24.60
2023-09-05T03:28:51.462Z,24.60
2023-09-05T03:31:21.746Z,24.50
2023-09-05T03:33:52.668Z,24.50
2023-09-05T03:36:20.036Z,24.50
2023-09-05T03:38:47.501Z,24.40
2023-09-05T03:41:15.033Z,24.40
2023-09-05T03:43:42.549Z,24.40
2023-09-05T03:46:09.897Z,24.40
2023-09-05T03:48:37.364Z,24.40
2023-09-05T03:51:07.309Z,24.50
2023-09-05T03:53:36.219Z,24.50
2023-09-05T03:56:06.150Z,24.50
2023-09-05T03:58:33.458Z,24.50
2023-09-05T04:01:03.350Z,24.50
2023-09-05T04:03:33.428Z,24.40
2023-09-05T04:06:01.964Z,24.40
2023-09-05T04:08:30.132Z,24.40
2023-09-05T04:11:01.047Z,24.40
2023-09-05T04:13:29.103Z,24.30
2023-09-05T04:16:02.233Z,24.30
2023-09-05T04:18:32.360Z,24.30
2023-09-05T04:21:00.146Z,24.30
2023-09-05T04:23:28.318Z,24.30
2023-09-05T04:25:58.844Z,24.30
2023-09-05T04:28:27.160Z,24.40
2023-09-05T04:30:57.016Z,24.40
2023-09-05T04:33:27.744Z,24.40
2023-09-05T04:35:55.434Z,24.40
2023-09-05T04:38:23.575Z,24.30
2023-09-05T04:40:51.328Z,24.30
2023-09-05T04:43:18.656Z,24.20
2023-09-05T04:45:49.003Z,24.20
2023-09-05T04:48:16.534Z,24.20
2023-09-05T04:50:43.811Z,24.30
2023-09-05T04:53:11.399Z,24.20
2023-09-05T04:55:39.164Z,24.20
2023-09-05T04:58:07.370Z,24.20
2023-09-05T05:00:35.332Z,24.20
2023-09-05T05:03:02.810Z,24.10
2023-09-05T05:05:30.544Z,24.10
2023-09-05T05:07:57.975Z,24.10
2023-09-05T05:10:25.248Z,24.10
2023-09-05T05:12:52.586Z,24.10
2023-09-05T05:15:20.717Z,24.10
2023-09-05T05:17:48.254Z,24.10
2023-09-05T05:20:15.630Z,24.10
2023-09-05T05:22:43.095Z,24.10
2023-09-05T05:25:10.360Z,24.00
2023-09-05T05:27:37.706Z,24.00
2023-09-05T05:30:07.128Z,24.00
2023-09-05T05:32:34.416Z,24.00
2023-09-05T05:35:01.642Z,24.00
2023-09-05T05:37:29.410Z,23.90
2023-09-05T05:39:56.704Z,24.00
2023-09-05T05:42:24.051Z,24.00
2023-09-05T05:44:51.365Z,24.00
2023-09-05T05:47:18.785Z,24.10
2023-09-05T05:49:46.036Z,24.10
2023-09-05T05:52:13.477Z,24.10
2023-09-05T05:54:40.869Z,24.10
2023-09-05T05:57:08.158Z,24.10
2023-09-05T05:59:35.692Z,24.10
2023-09-05T06:02:04.720Z,24.00
2023-09-05T06:04:32.060Z,24.00
2023-09-05T06:06:59.522Z,24.00
2023-09-05T06:09:28.452Z,24.10
2023-09-05T06:11:56.001Z,24.10
2023-09-05T06:14:23.341Z,24.10
2023-09-05T06:16:50.794Z,24.20
2023-09-05T06:19:19.169Z,24.20
2023-09-05T06:21:48.346Z,24.30
2023-09-05T06:24:16.214Z,24.30
2023-09-05T06:26:46.328Z,24.30
2023-09-05T06:29:14.045Z,24.40
2023-09-05T06:31:41.608Z,24.40
2023-09-05T06:34:08.989Z,24.40
2023-09-05T06:36:37.941Z,24.40
2023-09-05T06:39:07.597Z,24.50
2023-09-05T06:41:38.636Z,24.50
2023-09-05T06:44:09.359Z,24.50
2023-09-05T06:46:37.533Z,24.50
2023-09-05T06:49:04.951Z,24.60
2023-09-05T06:51:32.437Z,24.60
2023-09-05T06:54:00.339Z,24.70
2023-09-05T06:56:27.847Z,24.80
2023-09-05T06:58:55.254Z,24.80
2023-09-05T07:01:22.803Z,24.90
2023-09-05T07:03:50.815Z,24.90
2023-09-05T07:06:20.310Z,25.00
2023-09-05T07:08:50.631Z,25.00
2023-09-05T07:11:18.376Z,25.10
2023-09-05T07:13:46.227Z,25.20
2023-09-05T07:16:14.768Z,25.30
2023-09-05T07:18:42.363Z,25.30
2023-09-05T07:21:09.818Z,25.40
2023-09-05T07:23:37.976Z,25.50
2023-09-05T07:26:06.484Z,25.50
2023-09-05T07:28:35.247Z,25.60
2023-09-05T07:31:03.610Z,25.80
2023-09-05T07:33:31.108Z,25.80
2023-09-05T07:36:01.677Z,25.90
2023-09-05T07:38:29.680Z,25.90
2023-09-05T07:41:00.084Z,26.00
2023-09-05T07:43:27.498Z,26.00
2023-09-05T07:45:54.838Z,26.10
2023-09-05T07:48:22.267Z,26.10
2023-09-05T07:50:50.273Z,26.20
2023-09-05T07:53:19.781Z,26.30
2023-09-05T07:55:47.361Z,26.40
2023-09-05T07:58:15.347Z,26.50
2023-09-05T08:00:44.408Z,26.70
2023-09-05T08:03:11.925Z,26.80
2023-09-05T08:05:44.058Z,26.90
2023-09-05T08:08:11.459Z,27.00
2023-09-05T08:10:38.782Z,27.10
2023-09-05T08:13:07.155Z,27.20
2023-09-05T08:15:34.763Z,27.20
2023-09-05T08:18:02.108Z,27.40
2023-09-05T08:20:29.577Z,27.50
2023-09-05T08:22:57.019Z,27.50
2023-09-05T08:25:25.430Z,27.60
2023-09-05T08:27:55.017Z,27.80
2023-09-05T08:30:25.423Z,27.90
2023-09-05T08:32:56.242Z,28.00
2023-09-05T08:35:23.838Z,28.00
2023-09-05T08:37:51.598Z,28.10
2023-09-05T08:40:20.141Z,28.20
2023-09-05T08:42:49.247Z,28.30
2023-09-05T08:45:23.960Z,28.40
2023-09-05T08:47:53.613Z,28.50
2023-09-05T08:50:21.036Z,28.50
2023-09-05T08:52:49.410Z,28.60
2023-09-05T08:55:17.626Z,28.70
2023-09-05T08:57:49.189Z,28.80
2023-09-05T09:00:18.748Z,28.90
2023-09-05T09:02:46.696Z,29.10
2023-09-05T09:05:15.206Z,29.30
2023-09-05T09:07:42.636Z,29.50
2023-09-05T09:10:12.998Z,29.80
2023-09-05T09:12:40.415Z,29.80
2023-09-05T09:15:11.147Z,29.80
2023-09-05T09:17:43.232Z,29.90
2023-09-05T09:20:13.667Z,30.10
2023-09-05T09:22:42.749Z,30.30
2023-09-05T09:25:13.257Z,30.40
2023-09-05T09:27:42.817Z,30.60
2023-09-05T09:30:11.081Z,30.70
2023-09-05T09:32:41.076Z,30.70
2023-09-05T09:35:12.129Z,30.80
2023-09-05T09:37:39.492Z,30.90
2023-09-05T09:40:07.835Z,31.00
2023-09-05T09:42:35.977Z,31.10
2023-09-05T09:45:06.660Z,31.10
2023-09-05T09:47:35.682Z,31.10
2023-09-05T09:50:05.932Z,31.20
2023-09-05T09:52:37.986Z,31.30
2023-09-05T09:55:09.771Z,31.50
2023-09-05T09:57:45.308Z,31.40
2023-09-05T10:00:18.958Z,31.50
2023-09-05T10:02:49.019Z,31.50
2023-09-05T10:05:18.405Z,31.60
2023-09-05T10:07:48.269Z,31.70
2023-09-05T10:10:17.438Z,31.80
2023-09-05T10:12:46.429Z,32.00
2023-09-05T10:15:15.587Z,32.30
2023-09-05T10:17:44.355Z,32.50
2023-09-05T10:20:15.558Z,32.50
2023-09-05T10:22:44.907Z,32.60
2023-09-05T10:25:15.477Z,32.70
2023-09-05T10:27:43.985Z,32.80
2023-09-05T10:30:12.103Z,33.00
2023-09-05T10:32:47.147Z,33.00
2023-09-05T10:35:19.815Z,33.10
2023-09-05T10:37:50.087Z,33.00
2023-09-05T10:40:18.582Z,33.00
2023-09-05T10:42:52.933Z,33.10
2023-09-05T10:45:36.582Z,33.10
2023-09-05T10:48:07.277Z,33.30
2023-09-05T10:50:56.130Z,33.30
2023-09-05T10:53:25.183Z,33.40
2023-09-05T10:55:55.899Z,33.40
2023-09-05T10:58:26.487Z,33.50
2023-09-05T11:00:53.820Z,33.60
2023-09-05T11:03:21.264Z,33.70
2023-09-05T11:05:48.675Z,33.80
2023-09-05T11:08:20.146Z,33.80
2023-09-05T11:10:47.838Z,33.70
2023-09-05T11:13:15.917Z,33.60
2023-09-05T11:15:45.150Z,33.60
2023-09-05T11:18:15.359Z,33.60
2023-09-05T11:20:45.078Z,33.70
2023-09-05T11:23:14.645Z,33.90
2023-09-05T11:25:44.565Z,34.00
2023-09-05T11:28:12.951Z,34.00
2023-09-05T11:30:42.076Z,34.10
2023-09-05T11:33:11.152Z,34.10
2023-09-05T11:35:39.986Z,34.10
2023-09-05T11:38:07.652Z,34.20
2023-09-05T11:40:36.781Z,34.20
2023-09-05T11:43:07.054Z,34.30
2023-09-05T11:45:35.887Z,34.40
2023-09-05T11:48:06.132Z,34.50
2023-09-05T11:50:34.087Z,34.50
2023-09-05T11:53:05.118Z,34.50
2023-09-05T11:55:33.249Z,34.60
2023-09-05T11:58:01.409Z,34.60
2023-09-05T12:00:28.929Z,34.60
2023-09-05T12:02:58.951Z,34.60
2023-09-05T12:05:27.459Z,34.60
2023-09-05T12:07:56.483Z,34.80
2023-09-05T12:10:26.287Z,34.80
2023-09-05T12:12:56.200Z,34.80
2023-09-05T12:15:26.601Z,34.80
2023-09-05T12:17:53.995Z,34.80
2023-09-05T12:20:21.539Z,34.80
2023-09-05T12:22:49.602Z,34.80
2023-09-05T12:25:19.686Z,34.80
2023-09-05T12:27:50.329Z,34.80
2023-09-05T12:30:20.694Z,34.80
2023-09-05T12:32:48.119Z,34.70
2023-09-05T12:35:15.620Z,34.80
2023-09-05T12:37:42.986Z,34.80
2023-09-05T12:40:11.208Z,34.90
2023-09-05T12:42:38.578Z,34.90
2023-09-05T12:45:06.286Z,34.90
2023-09-05T12:47:34.409Z,34.90
2023-09-05T12:50:11.281Z,34.90
2023-09-05T12:52:43.737Z,34.90
2023-09-05T12:55:12.938Z,34.80
2023-09-05T12:57:41.203Z,34.90
2023-09-05T13:00:12.504Z,35.00
2023-09-05T13:02:40.604Z,34.90
2023-09-05T13:05:09.266Z,35.00
2023-09-05T13:07:37.142Z,35.00
2023-09-05T13:10:04.921Z,35.00
2023-09-05T13:12:32.454Z,34.80
2023-09-05T13:14:59.996Z,34.80
2023-09-05T13:17:27.745Z,34.80
2023-09-05T13:19:55.352Z,34.80
2023-09-05T13:22:22.689Z,34.80
2023-09-05T13:24:50.047Z,34.70
2023-09-05T13:27:19.123Z,34.70
2023-09-05T13:29:46.448Z,34.80
2023-09-05T13:32:17.262Z,34.80
2023-09-05T13:34:44.903Z,34.80
2023-09-05T13:37:12.172Z,34.80
2023-09-05T13:39:39.684Z,34.70
2023-09-05T13:42:07.060Z,34.60
2023-09-05T13:44:34.722Z,34.60
2023-09-05T13:47:02.101Z,34.60
2023-09-05T13:49:29.486Z,34.50
2023-09-05T13:51:56.751Z,34.60
2023-09-05T13:54:26.376Z,34.60
2023-09-05T13:56:53.782Z,34.70
2023-09-05T13:59:21.181Z,34.80
2023-09-05T14:01:48.763Z,34.70
2023-09-05T14:04:16.964Z,34.60
2023-09-05T14:06:47.573Z,34.60
2023-09-05T14:09:16.968Z,34.60
2023-09-05T14:11:45.165Z,34.60
2023-09-05T14:14:17.257Z,34.60
2023-09-05T14:16:45.431Z,34.70
2023-09-05T14:19:12.984Z,34.60
2023-09-05T14:21:40.521Z,34.70
2023-09-05T14:24:08.213Z,34.70
2023-09-05T14:26:35.726Z,34.70
2023-09-05T14:29:05.611Z,34.70
2023-09-05T14:31:33.900Z,34.60
2023-09-05T14:34:01.263Z,34.60
2023-09-05T14:36:28.718Z,34.60
2023-09-05T14:38:58.066Z,34.70
2023-09-05T14:41:32.541Z,34.60
2023-09-05T14:44:04.492Z,34.60
2023-09-05T14:46:33.868Z,34.60
2023-09-05T14:49:01.348Z,34.60
2023-09-05T14:51:29.074Z,34.50
2023-09-05T14:53:56.625Z,34.60
2023-09-05T14:56:24.035Z,34.50
2023-09-05T14:58:51.591Z,34.40
2023-09-05T15:01:19.056Z,34.40
2023-09-05T15:03:46.395Z,34.40
2023-09-05T15:06:32.468Z,34.30
2023-09-05T15:09:00.620Z,34.40
2023-09-05T15:11:27.955Z,34.30
2023-09-05T15:13:55.394Z,34.20
2023-09-05T15:16:26.081Z,34.20
2023-09-05T15:18:53.504Z,34.30
2023-09-05T15:21:20.932Z,34.40
2023-09-05T15:23:48.697Z,34.40
2023-09-05T15:26:16.697Z,34.30
2023-09-05T15:28:44.864Z,34.30
2023-09-05T15:31:12.113Z,34.20
2023-09-05T15:33:39.569Z,34.10
2023-09-05T15:36:06.992Z,34.00
2023-09-05T15:38:34.384Z,33.90
2023-09-05T15:41:01.629Z,33.80
2023-09-05T15:43:29.114Z,33.70
2023-09-05T15:45:58.302Z,33.70
2023-09-05T15:48:26.272Z,33.70
2023-09-05T15:50:57.094Z,33.70
2023-09-05T15:53:24.479Z,33.70
2023-09-05T15:55:52.055Z,33.60
2023-09-05T15:58:20.279Z,33.50
2023-09-05T16:00:52.113Z,33.50
2023-09-05T16:03:21.100Z,33.50
2023-09-05T16:05:50.043Z,33.50
2023-09-05T16:08:17.536Z,33.50
2023-09-05T16:10:46.171Z,33.50
2023-09-05T16:13:13.705Z,33.50
2023-09-05T16:15:41.078Z,33.40
2023-09-05T16:18:09.290Z,33.40
2023-09-05T16:20:49.921Z,33.40
2023-09-05T16:23:22.919Z,33.40
2023-09-05T16:25:51.466Z,33.40
2023-09-05T16:28:19.099Z,33.40
2023-09-05T16:30:46.720Z,33.40
2023-09-05T16:33:14.405Z,33.30
2023-09-05T16:35:41.647Z,33.30
2023-09-05T16:38:09.078Z,33.20
2023-09-05T16:40:36.976Z,33.20
2023-09-05T16:43:04.411Z,33.20
2023-09-05T16:45:31.890Z,33.10
2023-09-05T16:47:59.429Z,33.10
2023-09-05T16:50:26.927Z,33.00
2023-09-05T16:52:54.326Z,33.00
2023-09-05T16:55:21.603Z,32.90
2023-09-05T16:57:49.726Z,32.80
2023-09-05T17:00:17.342Z,32.80
2023-09-05T17:02:44.900Z,32.80
2023-09-05T17:05:12.268Z,32.80
2023-09-05T17:07:39.727Z,32.70
2023-09-05T17:10:07.734Z,32.70
2023-09-05T17:12:35.037Z,32.60
2023-09-05T17:15:02.363Z,32.50
2023-09-05T17:17:29.753Z,32.50
2023-09-05T17:19:57.067Z,32.40
2023-09-05T17:22:24.529Z,32.40
2023-09-05T17:24:52.079Z,32.40
2023-09-05T17:27:19.461Z,32.30
2023-09-05T17:29:48.693Z,32.30
2023-09-05T17:32:15.942Z,32.20
2023-09-05T17:34:43.141Z,32.10
2023-09-05T17:37:14.404Z,32.10
2023-09-05T17:39:43.797Z,32.00
2023-09-05T17:42:11.047Z,31.90
2023-09-05T17:44:38.368Z,31.90
2023-09-05T17:47:05.707Z,31.80
2023-09-05T17:49:32.918Z,31.80
2023-09-05T17:52:00.037Z,31.70
2023-09-05T17:54:27.490Z,31.70
2023-09-05T17:56:54.801Z,31.60
2023-09-05T17:59:22.135Z,31.50
2023-09-05T18:01:52.642Z,31.40
2023-09-05T18:04:20.149Z,31.40
2023-09-05T18:06:48.176Z,31.30
2023-09-05T18:09:16.743Z,31.30
2023-09-05T18:11:43.953Z,31.20
2023-09-05T18:14:13.683Z,31.10
2023-09-05T18:16:41.438Z,31.00
2023-09-05T18:19:08.892Z,31.00
2023-09-05T18:21:37.162Z,30.90
2023-09-05T18:24:04.550Z,30.90
2023-09-05T18:26:32.007Z,30.90
2023-09-05T18:28:59.166Z,30.80
2023-09-05T18:31:26.511Z,30.70
2023-09-05T18:33:55.037Z,30.60
2023-09-05T18:36:23.880Z,30.50
2023-09-05T18:38:51.076Z,30.50
2023-09-05T18:41:20.424Z,30.30
2023-09-05T18:43:48.202Z,30.20
2023-09-05T18:46:16.426Z,30.10
2023-09-05T18:48:45.256Z,30.00
2023-09-05T18:51:15.640Z,29.90
2023-09-05T18:53:43.092Z,29.80
2023-09-05T18:56:11.152Z,29.70
2023-09-05T18:58:38.560Z,29.60
2023-09-05T19:01:07.422Z,29.50
2023-09-05T19:03:36.712Z,29.40
2023-09-05T19:06:04.062Z,29.30
2023-09-05T19:08:31.254Z,29.30
2023-09-05T19:11:04.029Z,29.20
2023-09-05T19:13:32.072Z,29.30
2023-09-05T19:16:05.454Z,29.20
2023-09-05T19:18:35.780Z,29.10
2023-09-05T19:21:03.858Z,29.00
2023-09-05T19:23:31.168Z,29.00
2023-09-05T19:25:58.352Z,28.80
2023-09-05T19:28:25.813Z,28.60
2023-09-05T19:30:53.281Z,28.50
2023-09-05T19:33:20.546Z,28.40
2023-09-05T19:35:50.066Z,28.40
2023-09-05T19:38:19.344Z,28.40
2023-09-05T19:40:47.116Z,28.30
2023-09-05T19:43:14.300Z,28.20
2023-09-05T19:45:43.036Z,28.10
2023-09-05T19:48:10.382Z,28.10
2023-09-05T19:50:38.291Z,27.90
2023-09-05T19:53:06.114Z,27.80
2023-09-05T19:55:33.333Z,27.70
2023-09-05T19:58:00.564Z,27.60
2023-09-05T20:00:28.622Z,27.50
2023-09-05T20:02:56.072Z,27.40
2023-09-05T20:05:23.418Z,27.30
2023-09-05T20:07:50.670Z,27.30
2023-09-05T20:10:19.135Z,27.20
2023-09-05T20:12:46.491Z,27.20
2023-09-05T20:15:13.842Z,27.30
2023-09-05T20:17:41.661Z,27.30
2023-09-05T20:20:11.484Z,27.20
2023-09-05T20:22:39.224Z,27.20
2023-09-05T20:25:08.003Z,27.20
2023-09-05T20:27:35.250Z,27.10
2023-09-05T20:30:02.520Z,27.10
2023-09-05T20:32:29.645Z,27.10
2023-09-05T20:34:56.868Z,27.10
2023-09-05T20:37:24.035Z,27.10
2023-09-05T20:39:51.498Z,27.10
2023-09-05T20:42:18.993Z,27.10
2023-09-05T20:44:48.354Z,27.00
2023-09-05T20:47:15.748Z,26.90
2023-09-05T20:49:44.027Z,26.90
2023-09-05T20:52:11.259Z,26.80
2023-09-05T20:54:38.510Z,26.70
2023-09-05T20:57:06.176Z,26.70
2023-09-05T20:59:34.873Z,26.60
2023-09-05T21:02:03.116Z,26.60
2023-09-05T21:04:33.042Z,26.50
2023-09-05T21:07:01.074Z,26.50
2023-09-05T21:09:28.364Z,26.50
2023-09-05T21:11:55.627Z,26.60
2023-09-05T21:14:24.821Z,26.50
2023-09-05T21:16:52.991Z,26.50
2023-09-05T21:19:20.397Z,26.40
2023-09-05T21:21:48.321Z,26.50
2023-09-05T21:24:15.688Z,26.50
2023-09-05T21:26:42.973Z,26.60
2023-09-05T21:29:10.142Z,26.80
2023-09-05T21:31:37.330Z,26.80
2023-09-05T21:34:04.808Z,26.80
2023-09-05T21:36:31.991Z,26.80
2023-09-05T21:39:01.660Z,26.70
2023-09-05T21:41:28.835Z,26.70
2023-09-05T21:43:56.307Z,26.70
2023-09-05T21:46:23.513Z,26.60
2023-09-05T21:48:50.908Z,26.60
2023-09-05T21:51:18.102Z,26.70
2023-09-05T21:53:45.386Z,26.60
2023-09-05T21:56:12.799Z,26.60
2023-09-05T21:58:40.087Z,26.50
2023-09-05T22:01:07.213Z,26.40
2023-09-05T22:03:34.606Z,26.40
2023-09-05T22:06:01.803Z,26.40
2023-09-05T22:08:29.248Z,26.40
2023-09-05T22:10:56.746Z,26.40
2023-09-05T22:13:24.606Z,26.30
2023-09-05T22:15:54.133Z,26.20
2023-09-05T22:18:22.363Z,26.10
2023-09-05T22:20:58.795Z,26.00
2023-09-05T22:23:28.499Z,26.00
2023-09-05T22:25:55.795Z,25.90
2023-09-05T22:28:23.126Z,25.90
2023-09-05T22:30:50.504Z,25.80
2023-09-05T22:33:18.672Z,25.80
2023-09-05T22:35:46.019Z,25.80
2023-09-05T22:38:13.398Z,25.70
2023-09-05T22:40:40.514Z,25.60
2023-09-05T22:43:07.789Z,25.60
2023-09-05T22:45:35.127Z,25.60
2023-09-05T22:48:02.819Z,25.70
2023-09-05T22:50:30.034Z,25.70
2023-09-05T22:52:57.555Z,25.80
2023-09-05T22:55:25.992Z,25.80
2023-09-05T22:57:54.592Z,25.80
2023-09-05T23:00:22.874Z,25.80
2023-09-05T23:02:50.373Z,25.80
2023-09-05T23:05:17.672Z,25.80
2023-09-05T23:07:45.900Z,25.80
2023-09-05T23:10:13.061Z,25.80
2023-09-05T23:12:40.494Z,25.80
2023-09-05T23:15:08.195Z,25.90
2023-09-05T23:17:35.991Z,25.90
2023-09-05T23:20:07.697Z,25.90
2023-09-05T23:22:35.086Z,26.00
2023-09-05T23:25:03.905Z,26.00
2023-09-05T23:27:31.277Z,26.10
2023-09-05T23:30:01.068Z,26.00
2023-09-05T23:32:28.292Z,26.00
2023-09-05T23:34:55.564Z,26.10
2023-09-05T23:37:22.881Z,26.10
2023-09-05T23:39:50.060Z,26.10
2023-09-05T23:42:17.443Z,26.10
2023-09-05T23:44:44.735Z,26.10
2023-09-05T23:47:12.965Z,26.10
2023-09-05T23:49:40.162Z,26.10
2023-09-05T23:52:07.512Z,26.10
2023-09-05T23:54:34.794Z,26.10
2023-09-05T23:57:03.441Z,26.10
2023-09-05T23:59:30.641Z,26.10
